TJSJTKPK

Guest
Details From TJSJ - San Juan - Luis Munoz Marin Intl
To TKPK - St. Kitts/Bradshaw Intl
Flight Number -
Tags generated
Created
Modified
Stats Distance 201 nm / 373 km
Max Altitude 21,100 ft / 6,431 m
Waypoints 3
Social Downloads 2
Likes 0
Share VATSIM

Download

Looking for another format? Having issues loading an existing format? Contact us
Advertisement - Login to hide

Notes

Basic altitude profile: - Ascent Rate: 1300ft/min - Ascent Speed: 250kts - Cruise Altitude: 15000ft - Cruise Speed: 320kts - Descent Rate: 1500ft/min - Descent Speed: 220kts Options: - Use NATs: no - Use PACOTS: no - Use low airways: yes - Use high airways: no

Route

TJSJ TANZY TKPK

ID Type Via Altitude Latitude Longitude Leg Dist Tot Dist Heading (true) Name
O TJSJ APT - 0 ft / 0 m 18.43878˚ -66.00202˚ - 0 nm - San Juan - Luis Munoz Marin Intl
TANZY FIX - 21,100 ft / 6,431 m 17.66878˚ -64.40247˚ 102 nm 102 nm 117° / 117° -
O TKPK APT - 0 ft / 0 m 17.31119˚ -62.71867˚ 98 nm 201 nm 102° / 103° St. Kitts/Bradshaw Intl

Altitude Profile

Advertisement - Login to hide

Weather


0- 5 10 15 20 25 30 35+ Temperature / ° C

Clouds and Precipitation
Forecast for 2018-05-23 00:00 UTC. Updated 33 minutes ago

Ground ~20,000 ft ~40,000 ft Winds

TJSJ

Details ICAO TJSJ (SJU)
Name San Juan - Luis Munoz Marin Intl
Region USA (Puerto Rico)
Timezone America/Puerto_Rico (UTC-4.0)
Stats Elevation 9 ft / 3 m (AMSL)
Location 18.438777° -66.002018°
Runways 2
Magnetic Variation 13.242° W

METAR

TJSJ 222256Z 09012KT 10SM FEW029 SCT060 SCT120 27/23 A3002

Decode

TAF

TAF TJSJ 221744Z 2218/2318 08015G22KT P6SM VCSH SCT025 SCT040 SCT090 FM222300 09011KT P6SM FEW025 SCT070 FM231400 07016KT P6SM FEW025 SCT035

Decode

Departure Runways

ID Width Length Bearing (true) Bearing (mag) Surface Threshold Offset Overrun Length
08 200 ft / 61 m 9,781 ft / 2,981 m 66.87° 80.11° Asphalt 0 ft / 0 m 200 ft / 61 m
10 151 ft / 46 m 8,007 ft / 2,440 m 90.14° 103.38° Concrete 0 ft / 0 m 200 ft / 61 m
26 200 ft / 61 m 9,781 ft / 2,981 m 246.88° 260.12° Asphalt 0 ft / 0 m 230 ft / 70 m
28 151 ft / 46 m 8,007 ft / 2,440 m 270.15° 283.39° Concrete 0 ft / 0 m 200 ft / 61 m

TKPK

Details ICAO TKPK (SKB)
Name St. Kitts/Bradshaw Intl
Region Saint Kitts and Nevis
Timezone America/St_Kitts (UTC-4.0)
Stats Elevation 170 ft / 52 m (AMSL)
Location 17.311194° -62.718666°
Runways 1
Magnetic Variation 14.463° W

METAR

TKPK 222300Z 06011KT 9999 SCT019 26/22 Q1017

Decode

TAF

TAF TKPK 221744Z 2218/2318 08014KT P6SM VCSH SCT018 FM230000 07012KT P6SM VCSH SCT018 SCT040 AMD NOT SKED 2302/2311

Decode

Destination Runways

ID Width Length Bearing (true) Bearing (mag) Surface Threshold Offset Overrun Length
07 148 ft / 45 m 7,620 ft / 2,323 m 56.95° 71.41° Asphalt 200 ft / 61 m 0 ft / 0 m
25 148 ft / 45 m 7,620 ft / 2,323 m 236.95° 251.41° Asphalt 0 ft / 0 m 0 ft / 0 m

Popular Alternatives